createdAt,value
2018-01-20T00:01:26.020Z,97837.68
2018-01-20T00:03:55.306Z,97833.09
2018-01-20T00:06:23.651Z,97834.28
2018-01-20T00:08:54.511Z,97838.91
2018-01-20T00:11:42.465Z,97829.99
2018-01-20T00:14:14.292Z,97830.69
2018-01-20T00:16:42.681Z,97830.11
2018-01-20T00:19:11.983Z,97829.80
2018-01-20T00:21:41.270Z,97837.02
2018-01-20T00:24:13.059Z,97834.97
2018-01-20T00:26:41.431Z,97825.04
2018-01-20T00:29:10.707Z,97825.89
2018-01-20T00:31:40.967Z,97828.60
2018-01-20T00:34:09.316Z,97828.43
2018-01-20T00:36:37.694Z,97827.17
2018-01-20T00:39:07.950Z,97822.44
2018-01-20T00:41:37.361Z,97821.02
2018-01-20T00:44:05.664Z,97822.34
2018-01-20T00:46:33.984Z,97817.72
2018-01-20T00:49:06.667Z,97810.21
2018-01-20T00:51:38.438Z,97811.39
2018-01-20T00:54:10.487Z,97813.73
2018-01-20T00:56:38.874Z,97809.52
2018-01-20T00:59:07.248Z,97799.45
2018-01-20T01:01:35.658Z,97803.92
2018-01-20T01:04:04.036Z,97807.19
2018-01-20T01:06:32.393Z,97798.41
2018-01-20T01:09:06.626Z,97803.81
2018-01-20T01:11:40.521Z,97798.98
2018-01-20T01:14:12.284Z,97800.81
2018-01-20T01:16:42.507Z,97800.90
2018-01-20T01:19:11.814Z,97803.16
2018-01-20T01:21:41.126Z,97797.28
2018-01-20T01:24:11.338Z,97797.45
2018-01-20T01:26:40.636Z,97805.43
2018-01-20T01:29:10.862Z,97799.55
2018-01-20T01:31:40.174Z,97792.23
2018-01-20T01:34:09.477Z,97795.28
2018-01-20T01:36:39.686Z,97796.20
2018-01-20T01:39:08.067Z,97794.69
2018-01-20T01:41:38.318Z,97802.34
2018-01-20T01:44:07.610Z,97794.79
2018-01-20T01:46:35.967Z,97795.09
2018-01-20T01:49:04.255Z,97785.42
2018-01-20T01:51:32.740Z,97784.69
2018-01-20T01:54:01.090Z,97788.73
2018-01-20T01:56:29.495Z,97790.67
2018-01-20T01:58:58.832Z,97791.39
2018-01-20T02:01:28.114Z,97780.12
2018-01-20T02:03:56.480Z,97780.27
2018-01-20T02:06:25.764Z,97780.24
2018-01-20T02:08:55.112Z,97776.61
2018-01-20T02:11:28.055Z,97777.96
2018-01-20T02:13:59.827Z,97773.16
2018-01-20T02:16:29.123Z,97774.32
2018-01-20T02:18:57.491Z,97768.80
2018-01-20T02:21:26.856Z,97768.80
2018-01-20T02:23:55.185Z,97773.09
2018-01-20T02:26:23.569Z,97770.95
2018-01-20T02:28:51.957Z,97773.55
2018-01-20T02:31:20.334Z,97765.67
2018-01-20T02:33:52.108Z,97756.02
2018-01-20T02:36:20.464Z,97766.43
2018-01-20T02:38:48.830Z,97757.45
2018-01-20T02:41:19.089Z,97760.13
2018-01-20T02:43:48.376Z,97757.75
2018-01-20T02:46:16.770Z,97754.93
2018-01-20T02:48:45.151Z,97758.20
2018-01-20T02:51:14.431Z,97760.65
2018-01-20T02:53:44.681Z,97755.72
2018-01-20T02:56:13.974Z,97758.88
2018-01-20T02:58:44.612Z,97747.96
2018-01-20T03:01:13.804Z,97755.82
2018-01-20T03:03:43.100Z,97749.42
2018-01-20T03:06:11.511Z,97750.61
2018-01-20T03:08:43.538Z,97750.27
2018-01-20T03:11:13.764Z,97752.17
2018-01-20T03:13:42.128Z,97751.23
2018-01-20T03:16:12.348Z,97748.70
2018-01-20T03:18:40.750Z,97747.45
2018-01-20T03:21:10.028Z,97744.09
2018-01-20T03:23:39.758Z,97744.70
2018-01-20T03:26:08.015Z,97740.72
2018-01-20T03:28:38.266Z,97740.75
2018-01-20T03:31:07.587Z,97731.77
2018-01-20T03:33:35.939Z,97736.47
2018-01-20T03:36:04.362Z,97738.67
2018-01-20T03:38:32.689Z,97741.88
2018-01-20T03:41:02.000Z,97741.74
2018-01-20T03:43:30.388Z,97736.75
2018-01-20T03:45:59.696Z,97737.77
2018-01-20T03:48:28.992Z,97747.19
2018-01-20T03:51:03.781Z,97743.03
2018-01-20T03:53:33.733Z,97735.86
2018-01-20T03:56:03.044Z,97732.39
2018-01-20T03:58:35.685Z,97731.44
2018-01-20T04:01:10.821Z,97723.78
2018-01-20T04:03:39.253Z,97725.08
2018-01-20T04:06:07.604Z,97718.08
2018-01-20T04:08:35.992Z,97720.69
2018-01-20T04:11:04.364Z,97717.22
2018-01-20T04:13:32.764Z,97719.50
2018-01-20T04:16:02.976Z,97707.84
2018-01-20T04:18:32.273Z,97704.41
2018-01-20T04:21:02.520Z,97701.75
2018-01-20T04:23:32.752Z,97696.01
2018-01-20T04:26:02.952Z,97693.73
2018-01-20T04:28:31.370Z,97690.26
2018-01-20T04:31:00.644Z,97684.64
2018-01-20T04:33:32.723Z,97688.86
2018-01-20T04:36:04.467Z,97694.17
2018-01-20T04:38:33.785Z,97688.52
2018-01-20T04:41:03.065Z,97686.52
2018-01-20T04:43:35.150Z,97682.27
2018-01-20T04:46:04.423Z,97673.80
2018-01-20T04:48:33.740Z,97686.22
2018-01-20T04:51:02.136Z,97676.32
2018-01-20T04:53:30.496Z,97677.44
2018-01-20T04:56:03.500Z,97677.88
2018-01-20T04:58:32.800Z,97678.70
2018-01-20T05:01:02.094Z,97677.09
2018-01-20T05:03:30.468Z,97673.56
2018-01-20T05:05:59.752Z,97670.61
2018-01-20T05:08:29.098Z,97668.50
2018-01-20T05:11:00.842Z,97667.55
2018-01-20T05:13:30.178Z,97665.78
2018-01-20T05:15:58.515Z,97671.53
2018-01-20T05:18:27.798Z,97671.19
2018-01-20T05:20:56.193Z,97664.66
2018-01-20T05:23:26.438Z,97663.33
2018-01-20T05:25:55.099Z,97659.73
2018-01-20T05:28:24.425Z,97651.91
2018-01-20T05:30:52.768Z,97655.14
2018-01-20T05:33:22.075Z,97653.61
2018-01-20T05:35:50.481Z,97653.84
2018-01-20T05:38:20.701Z,97648.54
2018-01-20T05:40:53.682Z,97647.63
2018-01-20T05:43:23.914Z,97646.22
2018-01-20T05:45:53.214Z,97642.92
2018-01-20T05:48:21.588Z,97641.22
2018-01-20T05:50:49.958Z,97641.86
2018-01-20T05:53:19.299Z,97641.79
2018-01-20T05:55:48.561Z,97638.45
2018-01-20T05:58:18.795Z,97644.80
2018-01-20T06:00:47.171Z,97643.00
2018-01-20T06:03:19.263Z,97640.30
2018-01-20T06:05:47.619Z,97643.25
2018-01-20T06:08:21.863Z,97646.11
2018-01-20T06:10:55.444Z,97630.08
2018-01-20T06:13:33.961Z,97638.03
2018-01-20T06:16:02.337Z,97639.70
2018-01-20T06:18:30.703Z,97637.39
2018-01-20T06:21:00.939Z,97648.13
2018-01-20T06:23:29.320Z,97644.60
2018-01-20T06:25:57.702Z,97649.30
2018-01-20T06:28:26.078Z,97640.90
2018-01-20T06:30:54.444Z,97637.73
2018-01-20T06:33:22.876Z,97634.72
2018-01-20T06:35:51.219Z,97636.65
2018-01-20T06:38:22.995Z,97637.02
2018-01-20T06:40:52.263Z,97631.63
2018-01-20T06:43:24.380Z,97624.41
2018-01-20T06:45:53.661Z,97620.23
2018-01-20T06:48:22.034Z,97614.34
2018-01-20T06:50:52.269Z,97605.48
2018-01-20T06:53:20.620Z,97606.77
2018-01-20T06:55:49.021Z,97601.63
2018-01-20T06:58:18.312Z,97605.67
2018-01-20T07:00:46.674Z,97603.61
2018-01-20T07:03:15.087Z,97604.89
2018-01-20T07:05:43.443Z,97593.26
2018-01-20T07:08:11.851Z,97598.28
2018-01-20T07:10:40.208Z,97600.56
2018-01-20T07:13:08.583Z,97596.78
2018-01-20T07:15:37.288Z,97589.79
2018-01-20T07:18:05.678Z,97597.47
2018-01-20T07:20:34.038Z,97594.45
2018-01-20T07:23:02.422Z,97590.52
2018-01-20T07:25:30.807Z,97588.02
2018-01-20T07:27:59.188Z,97580.81
2018-01-20T07:30:27.582Z,97585.05
2018-01-20T07:32:55.935Z,97584.45
2018-01-20T07:35:25.233Z,97578.57
2018-01-20T07:37:53.623Z,97578.38
2018-01-20T07:40:22.010Z,97573.66
2018-01-20T07:42:51.288Z,97573.45
2018-01-20T07:45:19.688Z,97567.11
2018-01-20T07:47:48.086Z,97569.12
2018-01-20T07:50:16.855Z,97572.20
2018-01-20T07:52:45.123Z,97568.45
2018-01-20T07:55:13.500Z,97573.25
2018-01-20T07:57:42.193Z,97569.61
2018-01-20T08:00:10.573Z,97561.39
2018-01-20T08:02:38.958Z,97572.03
2018-01-20T08:05:07.667Z,97570.06
2018-01-20T08:07:36.019Z,97568.88
2018-01-20T08:10:04.401Z,97560.56
2018-01-20T08:12:32.774Z,97560.53
2018-01-20T08:15:01.208Z,97554.92
2018-01-20T08:17:29.570Z,97556.15
2018-01-20T08:19:57.933Z,97556.45
2018-01-20T08:22:26.288Z,97556.01
2018-01-20T08:24:54.664Z,97552.33
2018-01-20T08:27:24.013Z,97543.91
2018-01-20T08:29:52.389Z,97537.12
2018-01-20T08:32:20.742Z,97531.81
2018-01-20T08:34:49.175Z,97523.20
2018-01-20T08:37:17.504Z,97522.01
2018-01-20T08:39:45.908Z,97513.28
2018-01-20T08:42:14.306Z,97512.12
2018-01-20T08:44:42.694Z,97505.62
2018-01-20T08:47:11.011Z,97499.27
2018-01-20T08:49:39.429Z,97500.96
2018-01-20T08:52:07.856Z,97499.42
2018-01-20T08:54:37.084Z,97484.58
2018-01-20T08:57:05.491Z,97482.86
2018-01-20T08:59:33.914Z,97473.13
2018-01-20T09:02:02.243Z,97469.16
2018-01-20T09:04:30.646Z,97469.21
2018-01-20T09:06:58.983Z,97469.41
2018-01-20T09:09:27.360Z,97467.66
2018-01-20T09:11:55.781Z,97460.06
2018-01-20T09:14:24.121Z,97445.28
2018-01-20T09:16:53.431Z,97442.48
2018-01-20T09:19:21.823Z,97438.59
2018-01-20T09:21:50.175Z,97434.00
2018-01-20T09:24:18.563Z,97429.15
2018-01-20T09:26:47.382Z,97428.37
2018-01-20T09:29:15.670Z,97422.13
2018-01-20T09:31:44.025Z,97426.43
2018-01-20T09:34:12.671Z,97417.36
2018-01-20T09:36:41.082Z,97416.24
2018-01-20T09:39:09.470Z,97415.86
2018-01-20T09:41:37.847Z,97417.55
2018-01-20T09:44:06.216Z,97401.69
2018-01-20T09:46:34.626Z,97402.84
2018-01-20T09:49:02.982Z,97397.77
2018-01-20T09:51:31.371Z,97387.80
2018-01-20T09:53:59.773Z,97388.14
2018-01-20T09:56:28.127Z,97383.86
2018-01-20T09:58:56.501Z,97381.13
2018-01-20T10:01:24.912Z,97376.25
2018-01-20T10:03:53.275Z,97376.25
2018-01-20T10:06:21.661Z,97370.42
2018-01-20T10:08:50.029Z,97362.33
2018-01-20T10:11:18.404Z,97359.03
2018-01-20T10:13:47.706Z,97364.98
2018-01-20T10:16:16.128Z,97361.52
2018-01-20T10:18:44.468Z,97360.00
2018-01-20T10:21:12.883Z,97354.01
2018-01-20T10:23:41.239Z,97348.25
2018-01-20T10:26:09.613Z,97339.45
2018-01-20T10:28:38.019Z,97329.50
2018-01-20T10:31:06.366Z,97330.72
2018-01-20T10:33:34.735Z,97323.59
2018-01-20T10:36:03.128Z,97319.34
2018-01-20T10:38:31.585Z,97314.23
2018-01-20T10:40:59.887Z,97305.06
2018-01-20T10:43:28.265Z,97294.70
2018-01-20T10:45:56.630Z,97292.38
2018-01-20T10:48:25.049Z,97286.47
2018-01-20T10:50:53.382Z,97283.62
2018-01-20T10:53:21.772Z,97277.81
2018-01-20T10:55:50.179Z,97273.79
2018-01-20T10:58:18.572Z,97258.83
2018-01-20T11:00:46.941Z,97256.30
2018-01-20T11:03:15.343Z,97238.05
2018-01-20T11:05:43.667Z,97232.27
2018-01-20T11:08:12.074Z,97224.84
2018-01-20T11:10:41.396Z,97224.52
2018-01-20T11:13:09.754Z,97218.84
2018-01-20T11:15:38.144Z,97213.73
2018-01-20T11:18:06.515Z,97206.89
2018-01-20T11:20:34.884Z,97194.55
2018-01-20T11:23:03.267Z,97180.95
2018-01-20T11:25:31.664Z,97174.81
2018-01-20T11:28:00.052Z,97170.52
2018-01-20T11:30:29.338Z,97160.25
2018-01-20T11:32:57.729Z,97152.75
2018-01-20T11:35:26.092Z,97149.02
2018-01-20T11:37:54.492Z,97137.25
2018-01-20T11:40:22.880Z,97134.17
2018-01-20T11:42:51.220Z,97124.11
2018-01-20T11:45:19.618Z,97114.09
2018-01-20T11:47:49.422Z,97109.03
2018-01-20T11:50:17.916Z,97095.97
2018-01-20T11:52:46.298Z,97086.98
2018-01-20T11:55:15.077Z,97073.03
2018-01-20T11:57:43.350Z,97069.38
2018-01-20T12:00:11.742Z,97065.27
2018-01-20T12:02:40.135Z,97062.45
2018-01-20T12:05:08.499Z,97053.55
2018-01-20T12:07:36.890Z,97044.66
2018-01-20T12:10:05.275Z,97039.97
2018-01-20T12:12:33.646Z,97035.09
2018-01-20T12:15:01.919Z,97029.67
2018-01-20T12:17:30.183Z,97016.48
2018-01-20T12:19:58.492Z,97003.25
2018-01-20T12:22:26.761Z,96998.09
2018-01-20T12:24:55.017Z,96993.67
2018-01-20T12:27:23.301Z,96981.60
2018-01-20T12:29:59.256Z,96974.88
2018-01-20T12:32:27.554Z,96967.94
2018-01-20T12:34:55.827Z,96959.48
2018-01-20T12:37:24.099Z,96955.80
2018-01-20T12:39:55.248Z,96947.95
2018-01-20T12:42:23.507Z,96942.61
2018-01-20T12:44:51.811Z,96933.66
2018-01-20T12:47:20.081Z,96920.25
2018-01-20T12:49:48.352Z,96923.98
2018-01-20T12:52:16.658Z,96917.88
2018-01-20T12:54:44.974Z,96903.65
2018-01-20T12:57:13.225Z,96896.45
2018-01-20T12:59:41.543Z,96893.75
2018-01-20T13:02:11.984Z,96879.91
2018-01-20T13:04:43.778Z,96869.73
2018-01-20T13:07:12.154Z,96863.64
2018-01-20T13:09:40.515Z,96849.52
2018-01-20T13:12:12.297Z,96841.93
2018-01-20T13:14:40.654Z,96841.15
2018-01-20T13:17:09.487Z,96831.19
2018-01-20T13:19:38.099Z,96822.84
2018-01-20T13:22:07.333Z,96814.52
2018-01-20T13:24:35.720Z,96807.56
2018-01-20T13:27:04.087Z,96801.80
2018-01-20T13:29:33.415Z,96800.91
2018-01-20T13:32:07.287Z,96796.03
2018-01-20T13:34:39.051Z,96792.95
2018-01-20T13:37:07.443Z,96785.58
2018-01-20T13:39:36.726Z,96772.97
2018-01-20T13:42:07.004Z,96772.48
2018-01-20T13:44:35.353Z,96764.60
2018-01-20T13:47:03.727Z,96752.70
2018-01-20T13:49:32.118Z,96744.53
2018-01-20T13:52:00.794Z,96741.27
2018-01-20T13:54:29.213Z,96732.14
2018-01-20T13:56:57.565Z,96736.13
2018-01-20T13:59:25.943Z,96733.23
2018-01-20T14:01:54.331Z,96724.33
2018-01-20T14:04:22.696Z,96721.46
2018-01-20T14:06:51.138Z,96719.48
2018-01-20T14:09:20.387Z,96715.06
2018-01-20T14:11:48.753Z,96713.84
2018-01-20T14:14:18.079Z,96718.14
2018-01-20T14:16:46.444Z,96713.83
2018-01-20T14:19:14.806Z,96712.91
2018-01-20T14:21:43.224Z,96714.30
2018-01-20T14:24:11.574Z,96714.80
2018-01-20T14:26:44.278Z,96707.66
2018-01-20T14:29:13.625Z,96693.34
2018-01-20T14:31:42.838Z,96688.56
2018-01-20T14:34:11.251Z,96688.83
2018-01-20T14:36:43.284Z,96681.27
2018-01-20T14:39:11.677Z,96672.38
2018-01-20T14:41:40.060Z,96674.95
2018-01-20T14:44:10.296Z,96672.94
2018-01-20T14:46:38.688Z,96668.05
2018-01-20T14:49:11.371Z,96674.47
2018-01-20T14:51:39.731Z,96668.98
2018-01-20T14:54:11.196Z,96673.94
2018-01-20T14:56:43.282Z,96669.20
2018-01-20T14:59:11.621Z,96663.17
2018-01-20T15:01:40.020Z,96654.92
2018-01-20T15:04:20.061Z,96648.69
2018-01-20T15:06:48.474Z,96643.12
2018-01-20T15:09:16.840Z,96638.36
2018-01-20T15:11:45.196Z,96638.77
2018-01-20T15:14:13.599Z,96630.54
2018-01-20T15:16:45.370Z,96623.19
2018-01-20T15:19:13.724Z,96617.22
2018-01-20T15:21:42.160Z,96610.45
2018-01-20T15:24:10.507Z,96605.59
2018-01-20T15:26:43.146Z,96606.94
2018-01-20T15:29:12.496Z,96603.61
2018-01-20T15:31:44.862Z,96598.50
2018-01-20T15:34:13.225Z,96595.91
2018-01-20T15:36:41.602Z,96597.50
2018-01-20T15:39:14.302Z,96591.26
2018-01-20T15:41:42.661Z,96594.92
2018-01-20T15:44:14.741Z,96593.20
2018-01-20T15:46:43.123Z,96587.56
2018-01-20T15:49:11.514Z,96594.34
2018-01-20T15:51:43.321Z,96589.20
2018-01-20T15:54:12.527Z,96599.89
2018-01-20T15:56:40.911Z,96596.00
2018-01-20T15:59:15.155Z,96594.76
2018-01-20T16:01:47.211Z,96586.20
2018-01-20T16:04:15.619Z,96580.57
2018-01-20T16:06:43.984Z,96585.30
2018-01-20T16:09:13.302Z,96580.70
2018-01-20T16:11:41.666Z,96569.63
2018-01-20T16:14:10.055Z,96576.31
2018-01-20T16:16:42.095Z,96574.22
2018-01-20T16:19:10.496Z,96571.54
2018-01-20T16:21:38.881Z,96574.27
2018-01-20T16:24:12.190Z,96564.45
2018-01-20T16:26:40.514Z,96558.59
2018-01-20T16:29:15.076Z,96552.52
2018-01-20T16:31:43.761Z,96552.49
2018-01-20T16:34:12.135Z,96549.22
2018-01-20T16:36:40.530Z,96548.70
2018-01-20T16:39:12.571Z,96541.40
2018-01-20T16:41:40.962Z,96538.27
2018-01-20T16:44:09.331Z,96532.31
2018-01-20T16:46:38.629Z,96530.96
2018-01-20T16:49:07.032Z,96531.58
2018-01-20T16:51:35.437Z,96534.11
2018-01-20T16:54:04.737Z,96528.86
2018-01-20T16:56:33.101Z,96528.46
2018-01-20T16:59:01.457Z,96525.78
2018-01-20T17:01:29.863Z,96524.78
2018-01-20T17:04:04.683Z,96531.11
2018-01-20T17:06:33.415Z,96530.96
2018-01-20T17:09:05.429Z,96530.97
2018-01-20T17:11:33.836Z,96527.64
2018-01-20T17:14:05.316Z,96526.69
2018-01-20T17:16:37.067Z,96523.77
2018-01-20T17:19:06.329Z,96521.81
2018-01-20T17:21:38.102Z,96522.03
2018-01-20T17:24:06.475Z,96525.66
2018-01-20T17:26:34.844Z,96521.03
2018-01-20T17:29:03.227Z,96526.20
2018-01-20T17:31:31.595Z,96523.56
2018-01-20T17:34:00.001Z,96524.83
2018-01-20T17:36:28.389Z,96518.63
2018-01-20T17:38:57.321Z,96518.14
2018-01-20T17:41:25.736Z,96526.14
2018-01-20T17:43:57.524Z,96532.11
2018-01-20T17:46:27.883Z,96524.16
2018-01-20T17:48:56.437Z,96540.36
2018-01-20T17:51:24.795Z,96538.70
2018-01-20T17:53:53.184Z,96537.49
2018-01-20T17:56:28.973Z,96540.25
2018-01-20T17:58:57.291Z,96547.16
2018-01-20T18:01:25.706Z,96551.86
2018-01-20T18:03:59.034Z,96548.77
2018-01-20T18:06:31.968Z,96545.59
2018-01-20T18:09:00.398Z,96544.58
2018-01-20T18:11:28.754Z,96554.46
2018-01-20T18:13:59.280Z,96549.23
2018-01-20T18:16:27.675Z,96547.77
2018-01-20T18:18:58.211Z,96554.67
2018-01-20T18:21:29.028Z,96546.70
2018-01-20T18:23:57.397Z,96547.13
2018-01-20T18:26:25.770Z,96545.30
2018-01-20T18:28:54.163Z,96550.11
2018-01-20T18:31:25.592Z,96553.77
2018-01-20T18:33:54.927Z,96553.95
2018-01-20T18:36:23.280Z,96552.34
2018-01-20T18:38:55.702Z,96558.92
2018-01-20T18:41:24.999Z,96547.00
2018-01-20T18:43:53.448Z,96559.61
2018-01-20T18:46:21.758Z,96561.20
2018-01-20T18:48:52.260Z,96564.05
2018-01-20T18:51:20.613Z,96572.03
2018-01-20T18:53:49.949Z,96567.89
2018-01-20T18:56:18.345Z,96573.32
2018-01-20T18:58:48.879Z,96572.36
2018-01-20T19:01:19.079Z,96571.04
2018-01-20T19:03:48.422Z,96571.09
2018-01-20T19:06:17.709Z,96576.59
2018-01-20T19:08:46.058Z,96578.50
2018-01-20T19:11:16.293Z,96580.66
2018-01-20T19:13:46.373Z,96579.29
2018-01-20T19:16:14.642Z,96590.17
2018-01-20T19:18:46.437Z,96583.58
2018-01-20T19:21:14.712Z,96587.94
2018-01-20T19:23:44.021Z,96591.22
2018-01-20T19:26:17.015Z,96588.45
2018-01-20T19:28:45.368Z,96591.89
2018-01-20T19:31:13.662Z,96593.74
2018-01-20T19:33:42.189Z,96589.52
2018-01-20T19:36:12.362Z,96589.31
2018-01-20T19:38:40.732Z,96595.23
2018-01-20T19:41:09.109Z,96598.64
2018-01-20T19:43:42.097Z,96606.80
2018-01-20T19:46:12.374Z,96610.33
2018-01-20T19:48:40.712Z,96611.16
2018-01-20T19:51:09.074Z,96614.67
2018-01-20T19:53:41.199Z,96610.97
2018-01-20T19:56:09.554Z,96606.09
2018-01-20T19:58:37.915Z,96609.41
2018-01-20T20:01:09.783Z,96604.41
2018-01-20T20:03:38.058Z,96602.22
2018-01-20T20:06:06.434Z,96606.28
2018-01-20T20:08:35.770Z,96612.84
2018-01-20T20:11:04.131Z,96610.05
2018-01-20T20:13:32.545Z,96621.38
2018-01-20T20:16:03.029Z,96624.73
2018-01-20T20:18:34.508Z,96625.25
2018-01-20T20:21:02.864Z,96633.31
2018-01-20T20:23:32.163Z,96640.17
2018-01-20T20:26:02.438Z,96639.52
2018-01-20T20:28:32.610Z,96637.61
2018-01-20T20:31:01.000Z,96635.51
2018-01-20T20:33:34.629Z,96637.31
2018-01-20T20:36:02.985Z,96634.61
2018-01-20T20:38:35.678Z,96635.28
2018-01-20T20:41:04.951Z,96638.13
2018-01-20T20:43:33.340Z,96638.83
2018-01-20T20:46:01.763Z,96643.30
2018-01-20T20:48:30.113Z,96644.27
2018-01-20T20:50:58.482Z,96642.03
2018-01-20T20:53:26.876Z,96651.26
2018-01-20T20:55:56.179Z,96665.23
2018-01-20T20:58:24.548Z,96666.45
2018-01-20T21:00:52.933Z,96671.02
2018-01-20T21:03:25.619Z,96673.46
2018-01-20T21:05:53.996Z,96679.29
2018-01-20T21:08:27.942Z,96679.95
2018-01-20T21:10:58.136Z,96680.16
2018-01-20T21:13:26.510Z,96687.20
2018-01-20T21:15:55.163Z,96690.94
2018-01-20T21:18:23.560Z,96686.50
2018-01-20T21:20:51.956Z,96689.25
2018-01-20T21:23:24.946Z,96695.91
2018-01-20T21:25:54.253Z,96695.92
2018-01-20T21:28:27.316Z,96700.79
2018-01-20T21:30:55.626Z,96697.96
2018-01-20T21:33:24.006Z,96710.36
2018-01-20T21:35:52.412Z,96710.05
2018-01-20T21:38:20.710Z,96710.08
2018-01-20T21:40:49.137Z,96708.13
2018-01-20T21:43:18.465Z,96717.09
2018-01-20T21:45:50.493Z,96714.02
2018-01-20T21:48:20.714Z,96714.34
2018-01-20T21:50:52.190Z,96723.50
2018-01-20T21:53:22.687Z,96723.77
2018-01-20T21:55:51.069Z,96723.37
2018-01-20T21:58:19.478Z,96731.84
2018-01-20T22:00:47.864Z,96745.10
2018-01-20T22:03:18.056Z,96752.03
2018-01-20T22:05:46.439Z,96749.45
2018-01-20T22:08:14.853Z,96759.63
2018-01-20T22:10:43.210Z,96762.36
2018-01-20T22:13:11.629Z,96765.60
2018-01-20T22:15:40.875Z,96765.31
2018-01-20T22:18:11.152Z,96764.18
2018-01-20T22:20:40.427Z,96766.78
2018-01-20T22:23:08.794Z,96764.00
2018-01-20T22:25:37.202Z,96766.70
2018-01-20T22:28:05.603Z,96779.14
2018-01-20T22:30:34.880Z,96786.11
2018-01-20T22:33:03.271Z,96801.38
2018-01-20T22:35:31.927Z,96799.00
2018-01-20T22:38:00.306Z,96790.75
2018-01-20T22:40:28.718Z,96788.98
2018-01-20T22:42:59.213Z,96794.06
2018-01-20T22:45:31.304Z,96799.54
2018-01-20T22:47:59.674Z,96804.78
2018-01-20T22:50:28.040Z,96812.19
2018-01-20T22:53:00.130Z,96817.01
2018-01-20T22:55:30.353Z,96824.47
2018-01-20T22:57:58.730Z,96824.38
2018-01-20T23:00:43.929Z,96824.52
2018-01-20T23:03:12.384Z,96842.53
2018-01-20T23:05:41.669Z,96852.00
2018-01-20T23:08:15.293Z,96847.72
2018-01-20T23:10:43.563Z,96855.20
2018-01-20T23:13:12.141Z,96858.00
2018-01-20T23:15:40.404Z,96855.26
2018-01-20T23:18:08.688Z,96854.44
2018-01-20T23:20:36.977Z,96856.28
2018-01-20T23:23:05.284Z,96859.41
2018-01-20T23:25:33.843Z,96864.48
2018-01-20T23:28:02.134Z,96881.66
2018-01-20T23:30:34.084Z,96887.98
2018-01-20T23:33:02.434Z,96901.29
2018-01-20T23:35:33.903Z,96908.84
2018-01-20T23:38:02.316Z,96908.29
2018-01-20T23:40:30.666Z,96910.65
2018-01-20T23:42:59.065Z,96914.73
2018-01-20T23:45:33.250Z,96932.31
2018-01-20T23:48:01.631Z,96933.42
2018-01-20T23:50:30.025Z,96941.67
2018-01-20T23:52:58.392Z,96954.46
2018-01-20T23:55:27.687Z,96965.52
2018-01-20T23:57:56.092Z,96972.11
